Aviation Digital Data Service (ADDS)

Output produced by TAFs form (0134 UTC 29 April 2017)
found at http://aviationweather.gov/adds/tafs/
 
KGUP 282344Z 2900/2924 29008KT P6SM VCSH SCT030 OVC045 
     FM290200 02003KT P6SM SCT040 BKN090 
     FM291200 01010KT P6SM -SHSN BKN040 OVC090